sensor_id;sensor_type;location;lat;lon;timestamp;pressure;altitude;pressure_sealevel;temperature;humidity
48622;BME280;34421;48.944;9.460;2022-08-20T00:01:49;98379.56;;;19.33;76.63
48622;BME280;34421;48.944;9.460;2022-08-20T00:04:14;98383.66;;;19.30;76.53
48622;BME280;34421;48.944;9.460;2022-08-20T00:06:40;98382.53;;;19.26;76.11
48622;BME280;34421;48.944;9.460;2022-08-20T00:09:06;98387.69;;;19.23;76.09
48622;BME280;34421;48.944;9.460;2022-08-20T00:11:32;98390.09;;;19.19;76.32
48622;BME280;34421;48.944;9.460;2022-08-20T00:13:59;98380.38;;;19.18;76.34
48622;BME280;34421;48.944;9.460;2022-08-20T00:16:30;98390.91;;;19.15;76.28
48622;BME280;34421;48.944;9.460;2022-08-20T00:18:58;98391.16;;;19.08;75.94
48622;BME280;34421;48.944;9.460;2022-08-20T00:21:23;98394.66;;;19.03;75.70
48622;BME280;34421;48.944;9.460;2022-08-20T00:23:50;98394.13;;;19.01;75.53
48622;BME280;34421;48.944;9.460;2022-08-20T00:26:17;98399.25;;;18.98;75.68
48622;BME280;34421;48.944;9.460;2022-08-20T00:28:42;98399.75;;;18.95;75.84
48622;BME280;34421;48.944;9.460;2022-08-20T00:31:10;98395.97;;;18.90;75.56
48622;BME280;34421;48.944;9.460;2022-08-20T00:33:37;98399.75;;;18.84;75.53
48622;BME280;34421;48.944;9.460;2022-08-20T00:36:03;98393.00;;;18.82;75.43
48622;BME280;34421;48.944;9.460;2022-08-20T00:38:32;98402.16;;;18.81;75.23
48622;BME280;34421;48.944;9.460;2022-08-20T00:40:58;98408.91;;;18.78;75.34
48622;BME280;34421;48.944;9.460;2022-08-20T00:43:32;98406.44;;;18.77;75.21
48622;BME280;34421;48.944;9.460;2022-08-20T00:46:00;98413.22;;;18.74;74.94
48622;BME280;34421;48.944;9.460;2022-08-20T00:48:28;98418.25;;;18.71;75.31
48622;BME280;34421;48.944;9.460;2022-08-20T00:51:02;98418.00;;;18.67;75.26
48622;BME280;34421;48.944;9.460;2022-08-20T00:53:29;98409.38;;;18.65;75.34
48622;BME280;34421;48.944;9.460;2022-08-20T00:55:55;98419.84;;;18.61;75.04
48622;BME280;34421;48.944;9.460;2022-08-20T00:58:21;98419.84;;;18.61;75.24
48622;BME280;34421;48.944;9.460;2022-08-20T01:00:47;98429.56;;;18.57;75.42
48622;BME280;34421;48.944;9.460;2022-08-20T01:03:16;98427.41;;;18.59;75.31
48622;BME280;34421;48.944;9.460;2022-08-20T01:05:43;98428.22;;;18.60;74.93
48622;BME280;34421;48.944;9.460;2022-08-20T01:08:11;98432.53;;;18.61;75.29
48622;BME280;34421;48.944;9.460;2022-08-20T01:10:38;98427.13;;;18.61;75.38
48622;BME280;34421;48.944;9.460;2022-08-20T01:13:08;98429.84;;;18.61;75.27
48622;BME280;34421;48.944;9.460;2022-08-20T01:15:40;98429.03;;;18.60;75.34
48622;BME280;34421;48.944;9.460;2022-08-20T01:18:10;98426.56;;;18.59;75.51
48622;BME280;34421;48.944;9.460;2022-08-20T01:20:44;98432.25;;;18.57;75.33
48622;BME280;34421;48.944;9.460;2022-08-20T01:23:21;98437.88;;;18.56;75.62
48622;BME280;34421;48.944;9.460;2022-08-20T01:28:51;98442.75;;;18.54;76.01
48622;BME280;34421;48.944;9.460;2022-08-20T01:31:23;98446.25;;;18.54;76.08
48622;BME280;34421;48.944;9.460;2022-08-20T01:33:50;98442.75;;;18.54;75.79
48622;BME280;34421;48.944;9.460;2022-08-20T01:36:19;98446.50;;;18.53;75.75
48622;BME280;34421;48.944;9.460;2022-08-20T01:38:47;98450.56;;;18.50;75.99
48622;BME280;34421;48.944;9.460;2022-08-20T01:41:21;98449.72;;;18.50;76.21
48622;BME280;34421;48.944;9.460;2022-08-20T01:43:52;98447.84;;;18.45;76.46
48622;BME280;34421;48.944;9.460;2022-08-20T01:46:25;98451.88;;;18.42;76.22
48622;BME280;34421;48.944;9.460;2022-08-20T01:48:52;98454.81;;;18.41;76.81
48622;BME280;34421;48.944;9.460;2022-08-20T01:51:24;98452.63;;;18.38;76.18
48622;BME280;34421;48.944;9.460;2022-08-20T01:53:53;98451.03;;;18.37;76.36
48622;BME280;34421;48.944;9.460;2022-08-20T01:56:22;98451.53;;;18.34;75.90
48622;BME280;34421;48.944;9.460;2022-08-20T01:58:49;98448.03;;;18.33;76.17
48622;BME280;34421;48.944;9.460;2022-08-20T02:03:45;98460.97;;;18.31;76.01
48622;BME280;34421;48.944;9.460;2022-08-20T02:06:10;98465.81;;;18.34;76.35
48622;BME280;34421;48.944;9.460;2022-08-20T02:08:36;98465.03;;;18.34;76.15
48622;BME280;34421;48.944;9.460;2022-08-20T02:11:01;98464.78;;;18.35;76.12
48622;BME280;34421;48.944;9.460;2022-08-20T02:13:26;98471.50;;;18.38;76.03
48622;BME280;34421;48.944;9.460;2022-08-20T02:15:52;98475.31;;;18.42;75.88
48622;BME280;34421;48.944;9.460;2022-08-20T02:18:17;98473.16;;;18.44;75.96
48622;BME280;34421;48.944;9.460;2022-08-20T02:20:44;98476.16;;;18.48;76.10
48622;BME280;34421;48.944;9.460;2022-08-20T02:23:10;98470.25;;;18.51;76.25
48622;BME280;34421;48.944;9.460;2022-08-20T02:25:37;98471.34;;;18.55;76.44
48622;BME280;34421;48.944;9.460;2022-08-20T02:28:07;98469.72;;;18.54;76.21
48622;BME280;34421;48.944;9.460;2022-08-20T02:30:37;98465.38;;;18.53;76.51
48622;BME280;34421;48.944;9.460;2022-08-20T02:33:06;98467.03;;;18.54;76.97
48622;BME280;34421;48.944;9.460;2022-08-20T02:35:32;98470.53;;;18.54;76.59
48622;BME280;34421;48.944;9.460;2022-08-20T02:37:57;98464.84;;;18.56;76.83
48622;BME280;34421;48.944;9.460;2022-08-20T02:40:25;98456.75;;;18.56;77.01
48622;BME280;34421;48.944;9.460;2022-08-20T02:42:51;98452.47;;;18.55;77.15
48622;BME280;34421;48.944;9.460;2022-08-20T02:45:17;98448.41;;;18.52;76.67
48622;BME280;34421;48.944;9.460;2022-08-20T02:47:44;98446.50;;;18.48;77.18
48622;BME280;34421;48.944;9.460;2022-08-20T02:50:12;98460.75;;;18.43;77.26
48622;BME280;34421;48.944;9.460;2022-08-20T02:52:39;98460.19;;;18.41;76.93
48622;BME280;34421;48.944;9.460;2022-08-20T02:55:05;98463.97;;;18.40;77.00
48622;BME280;34421;48.944;9.460;2022-08-20T02:57:31;98464.25;;;18.38;77.00
48622;BME280;34421;48.944;9.460;2022-08-20T02:59:57;98455.59;;;18.36;77.17
48622;BME280;34421;48.944;9.460;2022-08-20T03:02:23;98457.50;;;18.36;77.04
48622;BME280;34421;48.944;9.460;2022-08-20T03:04:49;98450.75;;;18.33;76.53
48622;BME280;34421;48.944;9.460;2022-08-20T03:07:14;98446.44;;;18.32;76.46
48622;BME280;34421;48.944;9.460;2022-08-20T03:09:40;98449.63;;;18.29;76.84
48622;BME280;34421;48.944;9.460;2022-08-20T03:12:06;98450.69;;;18.28;76.37
48622;BME280;34421;48.944;9.460;2022-08-20T03:14:32;98446.63;;;18.26;76.24
48622;BME280;34421;48.944;9.460;2022-08-20T03:16:58;98455.00;;;18.24;76.32
48622;BME280;34421;48.944;9.460;2022-08-20T03:19:23;98449.03;;;18.22;76.61
48622;BME280;34421;48.944;9.460;2022-08-20T03:21:49;98445.78;;;18.20;76.42
48622;BME280;34421;48.944;9.460;2022-08-20T03:24:15;98453.06;;;18.19;76.55
48622;BME280;34421;48.944;9.460;2022-08-20T03:26:40;98446.88;;;18.19;76.34
48622;BME280;34421;48.944;9.460;2022-08-20T03:29:06;98445.25;;;18.18;76.31
48622;BME280;34421;48.944;9.460;2022-08-20T03:31:31;98455.47;;;18.16;76.18
48622;BME280;34421;48.944;9.460;2022-08-20T03:33:57;98454.91;;;18.14;75.81
48622;BME280;34421;48.944;9.460;2022-08-20T03:36:24;98457.94;;;18.17;76.55
48622;BME280;34421;48.944;9.460;2022-08-20T03:38:50;98452.25;;;18.19;75.96
48622;BME280;34421;48.944;9.460;2022-08-20T03:41:15;98454.44;;;18.22;76.38
48622;BME280;34421;48.944;9.460;2022-08-20T03:43:41;98464.66;;;18.20;76.33
48622;BME280;34421;48.944;9.460;2022-08-20T03:46:07;98452.81;;;18.21;76.64
48622;BME280;34421;48.944;9.460;2022-08-20T03:48:32;98454.19;;;18.24;76.50
48622;BME280;34421;48.944;9.460;2022-08-20T03:50:58;98462.28;;;18.24;76.21
48622;BME280;34421;48.944;9.460;2022-08-20T03:53:26;98454.72;;;18.26;76.46
48622;BME280;34421;48.944;9.460;2022-08-20T03:55:57;98464.19;;;18.28;76.60
48622;BME280;34421;48.944;9.460;2022-08-20T03:58:28;98458.78;;;18.28;76.83
48622;BME280;34421;48.944;9.460;2022-08-20T04:00:53;98469.56;;;18.28;76.52
48622;BME280;34421;48.944;9.460;2022-08-20T04:03:19;98464.19;;;18.28;77.19
48622;BME280;34421;48.944;9.460;2022-08-20T04:05:45;98467.94;;;18.27;77.13
48622;BME280;34421;48.944;9.460;2022-08-20T04:08:20;98466.31;;;18.26;76.97
48622;BME280;34421;48.944;9.460;2022-08-20T04:10:47;98465.78;;;18.24;76.84
48622;BME280;34421;48.944;9.460;2022-08-20T04:13:15;98466.03;;;18.22;76.90
48622;BME280;34421;48.944;9.460;2022-08-20T04:15:40;98455.53;;;18.21;76.98
48622;BME280;34421;48.944;9.460;2022-08-20T04:18:08;98459.03;;;18.21;77.00
48622;BME280;34421;48.944;9.460;2022-08-20T04:20:35;98464.13;;;18.23;77.48
48622;BME280;34421;48.944;9.460;2022-08-20T04:23:01;98461.44;;;18.23;77.47
48622;BME280;34421;48.944;9.460;2022-08-20T04:25:28;98463.09;;;18.24;76.98
48622;BME280;34421;48.944;9.460;2022-08-20T04:27:56;98457.41;;;18.20;77.37
48622;BME280;34421;48.944;9.460;2022-08-20T04:30:22;98456.84;;;18.18;77.34
48622;BME280;34421;48.944;9.460;2022-08-20T04:32:48;98455.22;;;18.17;77.17
48622;BME280;34421;48.944;9.460;2022-08-20T04:35:14;98460.63;;;18.17;77.17
48622;BME280;34421;48.944;9.460;2022-08-20T04:37:43;98463.56;;;18.16;77.21
48622;BME280;34421;48.944;9.460;2022-08-20T04:40:13;98471.66;;;18.16;76.88
48622;BME280;34421;48.944;9.460;2022-08-20T04:42:57;98477.03;;;18.16;76.79
48622;BME280;34421;48.944;9.460;2022-08-20T04:45:23;98479.47;;;18.17;76.66
48622;BME280;34421;48.944;9.460;2022-08-20T04:47:50;98479.47;;;18.17;76.80
48622;BME280;34421;48.944;9.460;2022-08-20T04:50:16;98486.50;;;18.18;77.00
48622;BME280;34421;48.944;9.460;2022-08-20T04:52:42;98485.41;;;18.19;77.17
48622;BME280;34421;48.944;9.460;2022-08-20T04:55:08;98487.59;;;18.22;77.10
48622;BME280;34421;48.944;9.460;2022-08-20T04:57:35;98497.31;;;18.24;77.13
48622;BME280;34421;48.944;9.460;2022-08-20T05:00:10;98499.47;;;18.27;77.27
48622;BME280;34421;48.944;9.460;2022-08-20T05:02:37;98498.69;;;18.31;77.41
48622;BME280;34421;48.944;9.460;2022-08-20T05:05:03;98497.91;;;18.36;77.49
48622;BME280;34421;48.944;9.460;2022-08-20T05:07:29;98503.59;;;18.39;77.55
48622;BME280;34421;48.944;9.460;2022-08-20T05:09:54;98500.09;;;18.44;77.53
48622;BME280;34421;48.944;9.460;2022-08-20T05:12:20;98505.81;;;18.48;77.29
48622;BME280;34421;48.944;9.460;2022-08-20T05:14:45;98512.56;;;18.50;77.83
48622;BME280;34421;48.944;9.460;2022-08-20T05:17:11;98517.97;;;18.55;77.58
48622;BME280;34421;48.944;9.460;2022-08-20T05:19:39;98523.13;;;18.62;77.43
48622;BME280;34421;48.944;9.460;2022-08-20T05:22:05;98523.16;;;18.67;77.87
48622;BME280;34421;48.944;9.460;2022-08-20T05:24:30;98534.78;;;18.73;77.56
48622;BME280;34421;48.944;9.460;2022-08-20T05:26:58;98527.00;;;18.76;77.55
48622;BME280;34421;48.944;9.460;2022-08-20T05:29:24;98527.28;;;18.80;77.98
48622;BME280;34421;48.944;9.460;2022-08-20T05:31:49;98522.75;;;18.85;78.03
48622;BME280;34421;48.944;9.460;2022-08-20T05:34:14;98521.41;;;18.88;78.15
48622;BME280;34421;48.944;9.460;2022-08-20T05:36:46;98515.47;;;18.91;77.92
48622;BME280;34421;48.944;9.460;2022-08-20T05:39:12;98524.94;;;18.94;78.09
48622;BME280;34421;48.944;9.460;2022-08-20T05:41:38;98524.41;;;18.97;78.17
48622;BME280;34421;48.944;9.460;2022-08-20T05:44:05;98532.25;;;18.98;78.61
48622;BME280;34421;48.944;9.460;2022-08-20T05:46:35;98534.97;;;19.03;78.45
48622;BME280;34421;48.944;9.460;2022-08-20T05:49:03;98532.00;;;19.05;78.37
48622;BME280;34421;48.944;9.460;2022-08-20T05:51:29;98534.72;;;19.05;78.60
48622;BME280;34421;48.944;9.460;2022-08-20T05:53:55;98529.03;;;19.06;78.29
48622;BME280;34421;48.944;9.460;2022-08-20T05:56:21;98527.97;;;19.07;78.64
48622;BME280;34421;48.944;9.460;2022-08-20T05:58:47;98531.19;;;19.09;78.70
48622;BME280;34421;48.944;9.460;2022-08-20T06:01:13;98523.94;;;19.10;78.78
48622;BME280;34421;48.944;9.460;2022-08-20T06:03:38;98523.66;;;19.11;78.65
48622;BME280;34421;48.944;9.460;2022-08-20T06:06:22;98522.56;;;19.12;78.75
48622;BME280;34421;48.944;9.460;2022-08-20T06:08:47;98516.69;;;19.16;78.75
48622;BME280;34421;48.944;9.460;2022-08-20T06:11:13;98519.66;;;19.19;79.53
48622;BME280;34421;48.944;9.460;2022-08-20T06:13:38;98517.22;;;19.23;78.72
48622;BME280;34421;48.944;9.460;2022-08-20T06:16:03;98524.78;;;19.26;79.01
48622;BME280;34421;48.944;9.460;2022-08-20T06:18:29;98527.78;;;19.29;78.83
48622;BME280;34421;48.944;9.460;2022-08-20T06:20:54;98527.25;;;19.32;79.05
48622;BME280;34421;48.944;9.460;2022-08-20T06:23:20;98530.50;;;19.34;79.16
48622;BME280;34421;48.944;9.460;2022-08-20T06:25:47;98522.41;;;19.40;79.46
48622;BME280;34421;48.944;9.460;2022-08-20T06:28:14;98527.56;;;19.46;79.60
48622;BME280;34421;48.944;9.460;2022-08-20T06:30:39;98522.44;;;19.55;79.35
48622;BME280;34421;48.944;9.460;2022-08-20T06:33:04;98531.09;;;19.62;79.66
48622;BME280;34421;48.944;9.460;2022-08-20T06:35:30;98524.13;;;19.66;79.34
48622;BME280;34421;48.944;9.460;2022-08-20T06:37:58;98530.31;;;19.72;79.67
48622;BME280;34421;48.944;9.460;2022-08-20T06:40:27;98538.19;;;19.78;79.10
48622;BME280;34421;48.944;9.460;2022-08-20T06:42:53;98530.88;;;19.84;78.82
48622;BME280;34421;48.944;9.460;2022-08-20T06:45:25;98535.47;;;19.89;79.12
48622;BME280;34421;48.944;9.460;2022-08-20T06:47:53;98537.38;;;19.93;79.50
48622;BME280;34421;48.944;9.460;2022-08-20T06:50:23;98537.66;;;20.02;78.69
48622;BME280;34421;48.944;9.460;2022-08-20T06:52:49;98549.53;;;20.11;79.23
48622;BME280;34421;48.944;9.460;2022-08-20T06:55:15;98546.56;;;20.18;78.67
48622;BME280;34421;48.944;9.460;2022-08-20T06:57:41;98542.75;;;20.19;78.30
48622;BME280;34421;48.944;9.460;2022-08-20T07:00:11;98547.91;;;20.15;79.24
48622;BME280;34421;48.944;9.460;2022-08-20T07:02:37;98551.97;;;20.13;78.87
48622;BME280;34421;48.944;9.460;2022-08-20T07:05:03;98547.09;;;20.10;79.04
48622;BME280;34421;48.944;9.460;2022-08-20T07:07:29;98564.91;;;20.11;79.54
48622;BME280;34421;48.944;9.460;2022-08-20T07:10:09;98564.41;;;20.09;79.69
48622;BME280;34421;48.944;9.460;2022-08-20T07:12:35;98560.34;;;20.01;80.73
48622;BME280;34421;48.944;9.460;2022-08-20T07:15:05;98568.97;;;19.98;80.95
48622;BME280;34421;48.944;9.460;2022-08-20T07:17:32;98574.38;;;19.98;81.51
48622;BME280;34421;48.944;9.460;2022-08-20T07:19:57;98574.41;;;20.03;81.22
48622;BME280;34421;48.944;9.460;2022-08-20T07:22:23;98567.09;;;20.09;81.40
48622;BME280;34421;48.944;9.460;2022-08-20T07:24:49;98568.97;;;20.13;81.59
48622;BME280;34421;48.944;9.460;2022-08-20T07:27:19;98564.69;;;20.17;81.27
48622;BME280;34421;48.944;9.460;2022-08-20T07:29:45;98571.69;;;20.18;80.72
48622;BME280;34421;48.944;9.460;2022-08-20T07:32:29;98559.25;;;20.12;81.67
48622;BME280;34421;48.944;9.460;2022-08-20T07:35:04;98570.63;;;20.14;81.52
48622;BME280;34421;48.944;9.460;2022-08-20T07:37:31;98572.25;;;20.20;81.46
48622;BME280;34421;48.944;9.460;2022-08-20T07:39:56;98571.72;;;20.29;81.47
48622;BME280;34421;48.944;9.460;2022-08-20T07:42:21;98571.69;;;20.39;81.59
48622;BME280;34421;48.944;9.460;2022-08-20T07:44:47;98570.06;;;20.48;81.37
48622;BME280;34421;48.944;9.460;2022-08-20T07:47:17;98584.13;;;20.60;81.84
48622;BME280;34421;48.944;9.460;2022-08-20T07:49:42;98585.19;;;20.69;81.04
48622;BME280;34421;48.944;9.460;2022-08-20T07:52:08;98583.00;;;20.82;80.92
48622;BME280;34421;48.944;9.460;2022-08-20T07:54:33;98576.47;;;20.93;81.28
48622;BME280;34421;48.944;9.460;2022-08-20T07:57:02;98578.34;;;21.03;81.87
48622;BME280;34421;48.944;9.460;2022-08-20T07:59:28;98582.94;;;21.12;80.80
48622;BME280;34421;48.944;9.460;2022-08-20T08:01:53;98579.06;;;21.24;80.96
48622;BME280;34421;48.944;9.460;2022-08-20T08:04:19;98578.50;;;21.32;80.59
48622;BME280;34421;48.944;9.460;2022-08-20T08:06:44;98579.31;;;21.43;80.75
48622;BME280;34421;48.944;9.460;2022-08-20T08:09:12;98576.81;;;21.51;81.19
48622;BME280;34421;48.944;9.460;2022-08-20T08:11:40;98569.19;;;21.58;80.34
48622;BME280;34421;48.944;9.460;2022-08-20T08:14:09;98569.16;;;21.64;80.60
48622;BME280;34421;48.944;9.460;2022-08-20T08:16:36;98569.66;;;21.71;80.25
48622;BME280;34421;48.944;9.460;2022-08-20T08:19:04;98562.53;;;21.80;80.74
48622;BME280;34421;48.944;9.460;2022-08-20T08:21:30;98565.22;;;21.85;80.54
48622;BME280;34421;48.944;9.460;2022-08-20T08:23:56;98562.19;;;21.92;79.92
48622;BME280;34421;48.944;9.460;2022-08-20T08:26:22;98556.97;;;22.00;79.80
48622;BME280;34421;48.944;9.460;2022-08-20T08:28:48;98558.53;;;22.12;79.56
48622;BME280;34421;48.944;9.460;2022-08-20T08:31:13;98556.81;;;22.26;79.80
48622;BME280;34421;48.944;9.460;2022-08-20T08:33:39;98561.88;;;22.38;79.37
48622;BME280;34421;48.944;9.460;2022-08-20T08:36:07;98554.44;;;22.48;78.86
48622;BME280;34421;48.944;9.460;2022-08-20T08:38:35;98554.56;;;22.62;79.15
48622;BME280;34421;48.944;9.460;2022-08-20T08:41:18;98557.44;;;22.76;78.83
48622;BME280;34421;48.944;9.460;2022-08-20T08:43:47;98555.66;;;22.90;78.41
48622;BME280;34421;48.944;9.460;2022-08-20T08:46:16;98552.81;;;23.01;77.81
48622;BME280;34421;48.944;9.460;2022-08-20T08:48:45;98553.22;;;23.13;77.89
48622;BME280;34421;48.944;9.460;2022-08-20T08:51:14;98561.75;;;23.25;77.28
48622;BME280;34421;48.944;9.460;2022-08-20T08:53:49;98562.13;;;23.37;77.06
48622;BME280;34421;48.944;9.460;2022-08-20T08:56:17;98562.06;;;23.42;75.49
48622;BME280;34421;48.944;9.460;2022-08-20T08:58:43;98563.19;;;23.41;75.23
48622;BME280;34421;48.944;9.460;2022-08-20T09:01:14;98559.22;;;23.53;74.79
48622;BME280;34421;48.944;9.460;2022-08-20T09:03:41;98563.34;;;23.69;74.36
48622;BME280;34421;48.944;9.460;2022-08-20T09:06:13;98560.44;;;23.84;73.76
48622;BME280;34421;48.944;9.460;2022-08-20T09:08:47;98563.72;;;23.81;73.08
48622;BME280;34421;48.944;9.460;2022-08-20T09:11:15;98558.44;;;23.90;73.19
48622;BME280;34421;48.944;9.460;2022-08-20T09:13:42;98558.50;;;24.04;72.82
48622;BME280;34421;48.944;9.460;2022-08-20T09:16:08;98559.94;;;24.15;72.84
48622;BME280;34421;48.944;9.460;2022-08-20T09:18:33;98560.47;;;24.17;72.27
48622;BME280;34421;48.944;9.460;2022-08-20T09:20:59;98559.84;;;24.20;72.30
48622;BME280;34421;48.944;9.460;2022-08-20T09:23:24;98566.03;;;24.26;71.95
48622;BME280;34421;48.944;9.460;2022-08-20T09:25:49;98566.22;;;24.29;71.57
48622;BME280;34421;48.944;9.460;2022-08-20T09:28:15;98568.34;;;24.32;71.51
48622;BME280;34421;48.944;9.460;2022-08-20T09:30:40;98557.47;;;24.32;71.29
48622;BME280;34421;48.944;9.460;2022-08-20T09:33:06;98565.63;;;24.32;71.03
48622;BME280;34421;48.944;9.460;2022-08-20T09:35:31;98560.91;;;24.24;70.67
48622;BME280;34421;48.944;9.460;2022-08-20T09:37:58;98559.34;;;24.18;70.40
48622;BME280;34421;48.944;9.460;2022-08-20T09:40:23;98555.91;;;24.13;69.49
48622;BME280;34421;48.944;9.460;2022-08-20T09:42:49;98562.31;;;24.22;69.60
48622;BME280;34421;48.944;9.460;2022-08-20T09:45:15;98557.94;;;24.21;68.21
48622;BME280;34421;48.944;9.460;2022-08-20T09:47:41;98556.13;;;24.16;68.71
48622;BME280;34421;48.944;9.460;2022-08-20T09:50:07;98561.50;;;24.21;68.16
48622;BME280;34421;48.944;9.460;2022-08-20T09:52:42;98550.22;;;24.28;67.94
48622;BME280;34421;48.944;9.460;2022-08-20T09:55:30;98554.75;;;24.32;67.52
48622;BME280;34421;48.944;9.460;2022-08-20T09:57:57;98549.31;;;24.51;67.07
48622;BME280;34421;48.944;9.460;2022-08-20T10:00:24;98559.16;;;24.47;65.30
48622;BME280;34421;48.944;9.460;2022-08-20T10:02:49;98547.72;;;24.31;64.75
48622;BME280;34421;48.944;9.460;2022-08-20T10:05:14;98544.47;;;24.29;64.17
48622;BME280;34421;48.944;9.460;2022-08-20T10:07:40;98552.38;;;24.45;63.99
48622;BME280;34421;48.944;9.460;2022-08-20T10:10:08;98554.63;;;24.56;63.39
48622;BME280;34421;48.944;9.460;2022-08-20T10:12:34;98556.47;;;24.61;61.95
48622;BME280;34421;48.944;9.460;2022-08-20T10:14:59;98559.00;;;24.58;61.97
48622;BME280;34421;48.944;9.460;2022-08-20T10:17:24;98555.25;;;24.67;63.04
48622;BME280;34421;48.944;9.460;2022-08-20T10:19:50;98556.28;;;24.85;63.33
48622;BME280;34421;48.944;9.460;2022-08-20T10:22:15;98574.03;;;25.10;62.89
48622;BME280;34421;48.944;9.460;2022-08-20T10:24:41;98548.84;;;25.18;61.71
48622;BME280;34421;48.944;9.460;2022-08-20T10:27:06;98556.59;;;25.11;60.74
48622;BME280;34421;48.944;9.460;2022-08-20T10:29:32;98562.56;;;24.99;61.12
48622;BME280;34421;48.944;9.460;2022-08-20T10:32:11;98557.38;;;24.98;60.70
48622;BME280;34421;48.944;9.460;2022-08-20T10:34:38;98546.31;;;25.08;60.15
48622;BME280;34421;48.944;9.460;2022-08-20T10:37:04;98554.97;;;25.10;61.12
48622;BME280;34421;48.944;9.460;2022-08-20T10:39:29;98553.06;;;24.97;59.27
48622;BME280;34421;48.944;9.460;2022-08-20T10:41:55;98545.69;;;24.84;58.79
48622;BME280;34421;48.944;9.460;2022-08-20T10:44:20;98549.13;;;24.89;59.50
48622;BME280;34421;48.944;9.460;2022-08-20T10:46:45;98540.94;;;24.89;59.73
48622;BME280;34421;48.944;9.460;2022-08-20T10:49:11;98541.97;;;24.79;59.94
48622;BME280;34421;48.944;9.460;2022-08-20T10:51:36;98546.50;;;24.70;59.67
48622;BME280;34421;48.944;9.460;2022-08-20T10:54:02;98543.75;;;24.56;59.23
48622;BME280;34421;48.944;9.460;2022-08-20T10:56:27;98540.91;;;24.48;59.67
48622;BME280;34421;48.944;9.460;2022-08-20T10:58:52;98531.13;;;24.47;60.21
48622;BME280;34421;48.944;9.460;2022-08-20T11:01:18;98540.91;;;24.48;60.04
48622;BME280;34421;48.944;9.460;2022-08-20T11:03:43;98537.00;;;24.54;59.88
48622;BME280;34421;48.944;9.460;2022-08-20T11:06:08;98537.31;;;24.66;59.83
48622;BME280;34421;48.944;9.460;2022-08-20T11:08:34;98537.22;;;24.71;60.23
48622;BME280;34421;48.944;9.460;2022-08-20T11:11:00;98544.41;;;24.81;60.01
48622;BME280;34421;48.944;9.460;2022-08-20T11:13:26;98544.19;;;24.91;59.49
48622;BME280;34421;48.944;9.460;2022-08-20T11:15:51;98543.38;;;25.05;59.19
48622;BME280;34421;48.944;9.460;2022-08-20T11:18:17;98544.31;;;25.14;58.39
48622;BME280;34421;48.944;9.460;2022-08-20T11:20:42;98548.31;;;25.30;58.83
48622;BME280;34421;48.944;9.460;2022-08-20T11:23:07;98542.34;;;25.42;57.74
48622;BME280;34421;48.944;9.460;2022-08-20T11:25:33;98534.22;;;25.64;57.57
48622;BME280;34421;48.944;9.460;2022-08-20T11:27:58;98544.78;;;25.80;56.45
48622;BME280;34421;48.944;9.460;2022-08-20T11:30:27;98535.75;;;25.93;55.80
48622;BME280;34421;48.944;9.460;2022-08-20T11:32:55;98546.56;;;26.21;55.80
48622;BME280;34421;48.944;9.460;2022-08-20T11:35:21;98547.53;;;26.25;54.19
48622;BME280;34421;48.944;9.460;2022-08-20T11:37:51;98542.41;;;26.32;54.47
48622;BME280;34421;48.944;9.460;2022-08-20T11:40:17;98541.88;;;25.99;55.80
48622;BME280;34421;48.944;9.460;2022-08-20T11:42:43;98561.31;;;25.47;57.19
48622;BME280;34421;48.944;9.460;2022-08-20T11:45:09;98563.34;;;24.86;63.45
48622;BME280;34421;48.944;9.460;2022-08-20T11:47:34;98557.28;;;24.29;66.91
48622;BME280;34421;48.944;9.460;2022-08-20T11:50:11;98558.59;;;23.99;68.75
48622;BME280;34421;48.944;9.460;2022-08-20T11:52:37;98553.81;;;23.91;69.79
48622;BME280;34421;48.944;9.460;2022-08-20T11:55:04;98557.63;;;23.90;70.22
48622;BME280;34421;48.944;9.460;2022-08-20T11:57:32;98554.41;;;23.87;70.10
48622;BME280;34421;48.944;9.460;2022-08-20T11:59:59;98549.56;;;23.84;70.25
48622;BME280;34421;48.944;9.460;2022-08-20T12:02:26;98554.72;;;23.86;70.48
48622;BME280;34421;48.944;9.460;2022-08-20T12:04:51;98555.31;;;23.83;69.58
48622;BME280;34421;48.944;9.460;2022-08-20T12:07:19;98561.38;;;23.75;68.76
48622;BME280;34421;48.944;9.460;2022-08-20T12:09:45;98556.16;;;23.78;68.40
48622;BME280;34421;48.944;9.460;2022-08-20T12:12:11;98563.50;;;23.97;67.25
48622;BME280;34421;48.944;9.460;2022-08-20T12:14:37;98567.34;;;23.96;66.69
48622;BME280;34421;48.944;9.460;2022-08-20T12:17:14;98573.03;;;24.13;66.41
48622;BME280;34421;48.944;9.460;2022-08-20T12:19:44;98578.09;;;24.20;65.61
48622;BME280;34421;48.944;9.460;2022-08-20T12:22:10;98575.50;;;24.28;63.88
48622;BME280;34421;48.944;9.460;2022-08-20T12:24:36;98576.53;;;24.32;63.74
48622;BME280;34421;48.944;9.460;2022-08-20T12:27:26;98582.31;;;24.45;63.34
48622;BME280;34421;48.944;9.460;2022-08-20T12:29:53;98583.16;;;24.45;62.51
48622;BME280;34421;48.944;9.460;2022-08-20T12:32:20;98568.94;;;24.48;62.46
48622;BME280;34421;48.944;9.460;2022-08-20T12:34:47;98578.19;;;24.47;62.47
48622;BME280;34421;48.944;9.460;2022-08-20T12:37:16;98565.31;;;24.53;62.60
48622;BME280;34421;48.944;9.460;2022-08-20T12:39:45;98564.78;;;24.51;62.41
48622;BME280;34421;48.944;9.460;2022-08-20T12:42:11;98562.31;;;24.54;62.79
48622;BME280;34421;48.944;9.460;2022-08-20T12:44:38;98552.13;;;24.60;62.54
48622;BME280;34421;48.944;9.460;2022-08-20T12:49:38;98544.00;;;24.88;63.34
48622;BME280;34421;48.944;9.460;2022-08-20T12:52:04;98537.53;;;24.97;63.37
48622;BME280;34421;48.944;9.460;2022-08-20T12:54:30;98546.91;;;25.05;63.94
48622;BME280;34421;48.944;9.460;2022-08-20T12:56:55;98543.78;;;25.12;63.83
48622;BME280;34421;48.944;9.460;2022-08-20T12:59:22;98543.25;;;25.10;64.12
48622;BME280;34421;48.944;9.460;2022-08-20T13:01:49;98539.44;;;25.11;63.94
48622;BME280;34421;48.944;9.460;2022-08-20T13:04:14;98540.97;;;25.17;64.22
48622;BME280;34421;48.944;9.460;2022-08-20T13:06:40;98548.41;;;25.25;64.59
48622;BME280;34421;48.944;9.460;2022-08-20T13:09:05;98544.38;;;25.36;64.86